Time;durP1;ratioP1;P1;durP2;ratioP2;P2;SDS_P1;SDS_P2;PMS_P1;PMS_P2;Temp;Humidity;BMP_temperature;BMP_pressure;BME280_temperature;BME280_humidity;BME280_pressure;Samples;Min_cycle;Max_cycle;Signal;HPM_P1;HPM_P2
2022/03/27 00:01:25;;;;;;;9.05;4.07;;;7.90;99.90;;;;;;4991986;28;20038;-72
2022/03/27 00:03:50;;;;;;;9.15;3.95;;;8.10;99.90;;;;;;4991321;28;20097;-72
2022/03/27 00:06:16;;;;;;;8.20;4.05;;;7.10;99.90;;;;;;4992051;28;20078;-73
2022/03/27 00:08:43;;;;;;;10.63;4.55;;;7.40;99.90;;;;;;4991624;28;20038;-72
2022/03/27 00:11:24;;;;;;;11.50;4.63;;;7.20;99.90;;;;;;4990022;28;20046;-72
2022/03/27 00:13:50;;;;;;;7.97;4.15;;;7.20;99.90;;;;;;4993291;28;20392;-72
2022/03/27 00:16:16;;;;;;;7.93;4.25;;;7.00;99.90;;;;;;4974376;28;20038;-73
2022/03/27 00:18:41;;;;;;;8.00;4.50;;;7.40;99.90;;;;;;4991559;28;20053;-72
2022/03/27 00:21:08;;;;;;;11.30;4.72;;;7.40;99.90;;;;;;4974207;28;20487;-72
2022/03/27 00:23:34;;;;;;;23.83;6.07;;;7.30;99.90;;;;;;4993117;28;20129;-72
2022/03/27 00:26:01;;;;;;;9.57;4.55;;;7.40;99.90;;;;;;4973048;28;20442;-72
2022/03/27 00:28:31;;;;;;;9.13;4.75;;;8.10;99.90;;;;;;4991066;28;20046;-72
2022/03/27 00:31:06;;;;;;;8.50;4.70;;;7.50;99.90;;;;;;4973739;28;20061;-72
2022/03/27 00:33:32;;;;;;;14.57;4.88;;;7.50;99.90;;;;;;4990582;28;20043;-72
2022/03/27 00:36:02;;;;;;;13.35;4.93;;;8.20;99.90;;;;;;4958217;28;20057;-73
2022/03/27 00:38:29;;;;;;;11.18;4.97;;;7.50;99.90;;;;;;4980910;28;20566;-73
2022/03/27 00:40:55;;;;;;;12.13;5.47;;;7.50;99.90;;;;;;4961087;28;20089;-73
2022/03/27 00:43:22;;;;;;;12.77;5.25;;;7.50;99.90;;;;;;4973771;28;20419;-73
2022/03/27 00:45:48;;;;;;;15.20;5.15;;;8.90;99.90;;;;;;4972800;28;20377;-73
2022/03/27 00:48:14;;;;;;;11.70;4.80;;;7.40;99.90;;;;;;4973635;28;20043;-72
2022/03/27 00:50:41;;;;;;;14.57;5.15;;;7.40;99.90;;;;;;4957862;28;20458;-73
2022/03/27 00:53:08;;;;;;;15.35;5.47;;;7.40;99.90;;;;;;4975076;28;20467;-73
2022/03/27 00:55:34;;;;;;;11.90;5.18;;;7.40;99.90;;;;;;4972064;28;20057;-73
2022/03/27 00:58:01;;;;;;;11.27;5.65;;;7.40;99.90;;;;;;4974172;28;20035;-73
2022/03/27 01:00:50;;;;;;;15.27;5.80;;;7.30;99.90;;;;;;4989540;28;20050;-73
2022/03/27 01:03:20;;;;;;;16.17;5.18;;;7.50;99.90;;;;;;4972763;28;20043;-72
2022/03/27 01:05:48;;;;;;;16.08;5.43;;;7.50;99.90;;;;;;4973146;28;20058;-73
2022/03/27 01:08:14;;;;;;;14.02;4.90;;;7.60;99.90;;;;;;4972828;28;20054;-73
2022/03/27 01:10:41;;;;;;;14.68;5.15;;;7.60;99.90;;;;;;4971866;28;20042;-73
2022/03/27 01:13:19;;;;;;;10.85;5.22;;;7.60;99.90;;;;;;4971980;28;20550;-73
2022/03/27 01:15:53;;;;;;;13.57;5.53;;;9.00;99.90;;;;;;4970301;28;20097;-73
2022/03/27 01:18:19;;;;;;;14.85;5.80;;;7.60;99.90;;;;;;4954369;28;20460;-72
2022/03/27 01:20:45;;;;;;;15.48;4.65;;;8.80;99.90;;;;;;4973474;28;20042;-73
2022/03/27 01:23:12;;;;;;;16.17;5.40;;;7.70;99.90;;;;;;4990974;28;20050;-72
2022/03/27 01:25:42;;;;;;;13.95;5.40;;;7.60;99.90;;;;;;4989480;28;20053;-73
2022/03/27 01:28:10;;;;;;;16.55;6.45;;;7.60;99.90;;;;;;4989489;28;20043;-73
2022/03/27 01:30:37;;;;;;;15.27;5.63;;;7.60;99.90;;;;;;4989851;28;20054;-73
2022/03/27 01:33:05;;;;;;;14.98;5.80;;;8.70;99.90;;;;;;4972950;28;20050;-73
2022/03/27 01:35:31;;;;;;;16.13;5.80;;;8.10;99.90;;;;;;4989306;28;20471;-73
2022/03/27 01:37:57;;;;;;;18.10;5.60;;;7.40;99.90;;;;;;4990529;28;20069;-73
2022/03/27 01:40:22;;;;;;;14.30;5.70;;;8.30;99.90;;;;;;4989544;28;20050;-73
2022/03/27 01:42:49;;;;;;;13.90;5.75;;;7.30;99.90;;;;;;4971244;28;20085;-73
2022/03/27 01:45:15;;;;;;;17.75;5.85;;;7.20;99.90;;;;;;4990226;28;20086;-73
2022/03/27 01:47:41;;;;;;;11.35;5.53;;;7.20;99.90;;;;;;4990016;28;20081;-73
2022/03/27 01:50:08;;;;;;;13.98;5.78;;;7.10;99.90;;;;;;4971947;28;20047;-73
2022/03/27 01:52:34;;;;;;;12.98;6.03;;;7.10;99.90;;;;;;4990056;28;20042;-73
2022/03/27 01:55:00;;;;;;;18.50;6.53;;;7.00;99.90;;;;;;4990772;28;20072;-73
2022/03/27 01:57:26;;;;;;;14.68;6.40;;;7.00;99.90;;;;;;4973916;28;20046;-73
2022/03/27 01:59:52;;;;;;;12.90;6.13;;;7.00;99.90;;;;;;4988794;28;20125;-73
2022/03/27 02:02:23;;;;;;;16.67;5.97;;;7.00;99.90;;;;;;4989991;28;20121;-73
2022/03/27 02:04:53;;;;;;;15.52;6.05;;;7.50;99.90;;;;;;4952225;28;20050;-73
2022/03/27 02:07:22;;;;;;;15.23;5.70;;;6.90;99.90;;;;;;4989229;28;20491;-74
2022/03/27 02:09:51;;;;;;;15.32;6.47;;;6.90;99.90;;;;;;4987346;28;20050;-73
2022/03/27 02:12:17;;;;;;;19.50;6.25;;;7.60;99.90;;;;;;4989376;28;20046;-73
2022/03/27 02:14:43;;;;;;;13.60;6.25;;;7.70;99.90;;;;;;4987689;28;20541;-73
2022/03/27 02:17:10;;;;;;;17.40;6.50;;;8.00;99.90;;;;;;4989111;28;20469;-73
2022/03/27 02:19:36;;;;;;;18.50;6.53;;;6.70;99.90;;;;;;4955853;28;20061;-73
2022/03/27 02:22:03;;;;;;;17.67;7.25;;;8.20;99.90;;;;;;4989046;28;20078;-73
2022/03/27 02:24:29;;;;;;;20.25;7.45;;;6.70;99.90;;;;;;4988705;28;20583;-72
2022/03/27 02:26:55;;;;;;;19.48;7.07;;;7.50;99.90;;;;;;4988225;28;20110;-73
2022/03/27 02:29:20;;;;;;;25.95;7.55;;;7.90;99.90;;;;;;4989991;28;20074;-73
2022/03/27 02:31:46;;;;;;;18.17;6.95;;;6.70;99.90;;;;;;4970502;28;20088;-73
2022/03/27 02:34:13;;;;;;;21.55;6.97;;;6.70;99.90;;;;;;4990004;28;20042;-72
2022/03/27 02:36:39;;;;;;;22.48;7.35;;;8.10;99.90;;;;;;4971871;28;20054;-73
2022/03/27 02:39:05;;;;;;;18.60;8.00;;;8.00;99.90;;;;;;4990014;28;20038;-73
2022/03/27 02:41:30;;;;;;;16.75;7.68;;;7.90;99.90;;;;;;4954931;28;20523;-73
2022/03/27 02:43:56;;;;;;;16.38;7.47;;;6.80;99.90;;;;;;4955948;28;20046;-74
2022/03/27 02:46:22;;;;;;;18.77;8.05;;;6.70;99.90;;;;;;4971065;28;20622;-73
2022/03/27 02:48:47;;;;;;;18.92;8.50;;;7.90;99.90;;;;;;4972079;28;20506;-73
2022/03/27 02:51:13;;;;;;;19.95;8.10;;;6.80;99.90;;;;;;4971492;28;20119;-73
2022/03/27 02:53:38;;;;;;;24.77;8.73;;;6.80;99.90;;;;;;4988615;28;20483;-73
2022/03/27 02:56:06;;;;;;;23.92;8.93;;;7.50;99.90;;;;;;4988479;28;20049;-73
2022/03/27 02:58:32;;;;;;;20.40;8.48;;;6.80;99.90;;;;;;4969923;28;20046;-73
2022/03/27 03:00:57;;;;;;;18.42;8.00;;;6.90;99.90;;;;;;4968590;28;20046;-73
2022/03/27 03:03:23;;;;;;;20.60;7.80;;;7.70;99.90;;;;;;4969819;28;20039;-73
2022/03/27 03:05:49;;;;;;;19.13;8.23;;;6.80;99.90;;;;;;4969405;28;20440;-73
2022/03/27 03:08:17;;;;;;;18.70;7.88;;;6.80;99.90;;;;;;4969074;28;20155;-73
2022/03/27 03:10:44;;;;;;;19.50;7.70;;;6.80;99.90;;;;;;4952920;28;20043;-73
2022/03/27 03:13:10;;;;;;;19.15;7.90;;;6.70;99.90;;;;;;4954555;28;20054;-72
2022/03/27 03:15:41;;;;;;;18.35;7.95;;;6.70;99.90;;;;;;4988694;28;20038;-73
2022/03/27 03:18:11;;;;;;;21.48;7.43;;;7.70;99.90;;;;;;4971424;28;20058;-73
2022/03/27 03:20:38;;;;;;;18.08;7.15;;;6.70;99.90;;;;;;4970565;28;20101;-73
2022/03/27 03:23:04;;;;;;;19.45;7.30;;;8.00;99.90;;;;;;4988483;28;20096;-72
2022/03/27 03:25:30;;;;;;;15.43;7.00;;;6.60;99.90;;;;;;4989782;28;20094;-74
2022/03/27 03:27:56;;;;;;;16.42;6.63;;;6.60;99.90;;;;;;4991263;28;20047;-73
2022/03/27 03:30:23;;;;;;;19.33;7.55;;;6.60;99.90;;;;;;4992247;28;20042;-73
2022/03/27 03:32:49;;;;;;;24.13;7.10;;;5.60;99.90;;;;;;4975192;28;20388;-73
2022/03/27 03:35:15;;;;;;;15.48;6.70;;;7.50;99.90;;;;;;4960175;28;20038;-73
2022/03/27 03:37:41;;;;;;;16.83;6.68;;;8.00;99.90;;;;;;4992660;28;20086;-73
2022/03/27 03:40:08;;;;;;;16.10;6.50;;;6.70;99.90;;;;;;4990980;28;20129;-73
2022/03/27 03:42:34;;;;;;;16.38;6.40;;;6.40;99.90;;;;;;4973696;28;20046;-73
2022/03/27 03:45:00;;;;;;;17.45;6.78;;;6.30;99.90;;;;;;4974186;28;21388;-73
2022/03/27 03:47:26;;;;;;;15.63;6.55;;;7.60;99.90;;;;;;4974647;28;20344;-73
2022/03/27 03:49:52;;;;;;;14.73;6.57;;;6.90;99.90;;;;;;4973766;28;20052;-73
2022/03/27 03:52:18;;;;;;;16.67;7.75;;;6.70;99.90;;;;;;4993096;28;20117;-73
2022/03/27 03:54:44;;;;;;;21.65;7.82;;;6.10;99.90;;;;;;4992347;28;20165;-73
2022/03/27 03:57:10;;;;;;;21.20;7.93;;;6.10;99.90;;;;;;4974465;28;20187;-73
2022/03/27 03:59:38;;;;;;;21.33;7.57;;;6.10;99.90;;;;;;4991589;28;20046;-73
2022/03/27 04:02:06;;;;;;;23.08;7.65;;;6.10;99.90;;;;;;4976459;28;20042;-73
2022/03/27 04:04:32;;;;;;;30.27;8.88;;;6.10;99.90;;;;;;4975491;28;20038;-73
2022/03/27 04:06:59;;;;;;;22.77;8.02;;;6.00;99.90;;;;;;4960591;28;20543;-73
2022/03/27 04:09:26;;;;;;;23.90;7.90;;;6.00;99.90;;;;;;4985774;28;20089;-72
2022/03/27 04:11:52;;;;;;;21.02;7.90;;;6.00;99.90;;;;;;4972587;28;20085;-73
2022/03/27 04:14:18;;;;;;;18.27;7.70;;;5.90;99.90;;;;;;4992030;28;20042;-72
2022/03/27 04:16:44;;;;;;;17.80;7.03;;;5.90;99.90;;;;;;4990069;28;20038;-73
2022/03/27 04:19:11;;;;;;;19.50;7.38;;;6.40;99.90;;;;;;4991846;28;20093;-72
2022/03/27 04:21:37;;;;;;;26.05;6.93;;;5.80;99.90;;;;;;4973926;28;20058;-72
2022/03/27 04:24:03;;;;;;;20.27;7.22;;;6.90;99.90;;;;;;4990732;28;20402;-73
2022/03/27 04:26:28;;;;;;;15.32;7.30;;;5.30;99.90;;;;;;4972741;28;20054;-73
2022/03/27 04:28:54;;;;;;;18.80;6.97;;;5.70;99.90;;;;;;4991084;28;20088;-73
2022/03/27 04:31:20;;;;;;;15.43;6.00;;;5.60;99.90;;;;;;4975653;28;20546;-73
2022/03/27 04:33:45;;;;;;;15.23;6.10;;;5.60;99.90;;;;;;4980880;28;20454;-73
2022/03/27 04:36:11;;;;;;;16.45;6.18;;;5.50;99.90;;;;;;4973127;28;20054;-73
2022/03/27 04:38:40;;;;;;;19.70;5.50;;;5.50;99.90;;;;;;4973754;28;20045;-72
2022/03/27 04:41:06;;;;;;;19.40;6.78;;;5.50;99.90;;;;;;4990251;28;20050;-73
2022/03/27 04:43:32;;;;;;;17.42;6.30;;;5.50;99.90;;;;;;4973314;28;20042;-73
2022/03/27 04:45:59;;;;;;;14.45;6.03;;;5.50;99.90;;;;;;4989727;28;20399;-73
2022/03/27 04:48:27;;;;;;;14.32;6.03;;;5.50;99.90;;;;;;4974333;28;20080;-73
2022/03/27 04:50:53;;;;;;;16.77;6.40;;;5.50;99.90;;;;;;4991045;28;20200;-73
2022/03/27 04:53:19;;;;;;;17.27;5.80;;;5.40;99.90;;;;;;4990950;28;20129;-73
2022/03/27 04:55:45;;;;;;;24.17;6.18;;;5.40;99.90;;;;;;4973183;28;20491;-73
2022/03/27 04:58:11;;;;;;;25.17;6.45;;;5.40;99.90;;;;;;4973082;28;20080;-73
2022/03/27 05:00:38;;;;;;;21.70;6.10;;;5.40;99.90;;;;;;4990467;28;20152;-73
2022/03/27 05:03:04;;;;;;;25.40;5.80;;;5.50;99.90;;;;;;4991324;28;20049;-72
2022/03/27 05:05:31;;;;;;;22.90;6.30;;;5.30;99.90;;;;;;4988693;28;20150;-72
2022/03/27 05:07:58;;;;;;;28.40;6.50;;;5.30;99.90;;;;;;4971480;28;20050;-73
2022/03/27 05:10:24;;;;;;;24.13;6.47;;;5.30;99.90;;;;;;4971022;28;20173;-73
2022/03/27 05:12:50;;;;;;;22.70;5.43;;;5.30;99.90;;;;;;4970283;28;20080;-73
2022/03/27 05:15:16;;;;;;;29.48;6.15;;;5.30;99.90;;;;;;4938031;28;20133;-72
2022/03/27 05:17:58;;;;;;;28.27;6.78;;;6.50;99.90;;;;;;4954426;28;20039;-72
2022/03/27 05:20:24;;;;;;;31.17;6.97;;;6.80;99.90;;;;;;4971196;28;20146;-72
2022/03/27 05:22:50;;;;;;;22.95;6.13;;;5.40;99.90;;;;;;4970988;28;20419;-72
2022/03/27 05:25:18;;;;;;;29.63;6.57;;;5.40;99.90;;;;;;4970491;28;20126;-72
2022/03/27 05:27:50;;;;;;;26.83;6.90;;;5.50;99.90;;;;;;4952857;28;20070;-72
2022/03/27 05:30:18;;;;;;;27.92;6.03;;;5.50;99.90;;;;;;4973235;28;20404;-72
2022/03/27 05:32:45;;;;;;;29.73;6.10;;;5.60;99.90;;;;;;4938077;28;20055;-72
2022/03/27 05:35:11;;;;;;;32.65;6.82;;;5.70;99.90;;;;;;4969587;28;20067;-72
2022/03/27 05:37:38;;;;;;;38.08;6.68;;;5.70;99.90;;;;;;4954711;28;20051;-72
2022/03/27 05:40:06;;;;;;;31.98;6.70;;;5.70;99.90;;;;;;4971570;28;20047;-72
2022/03/27 05:42:32;;;;;;;40.17;6.75;;;5.70;99.90;;;;;;4989412;28;20430;-72
2022/03/27 05:45:01;;;;;;;30.23;6.57;;;5.80;99.90;;;;;;4974484;28;20558;-73
2022/03/27 05:47:27;;;;;;;36.35;6.97;;;5.80;99.90;;;;;;4959017;28;20043;-73
2022/03/27 05:49:53;;;;;;;39.75;7.60;;;5.80;99.90;;;;;;4972585;28;20054;-73
2022/03/27 05:52:18;;;;;;;37.25;6.47;;;5.90;99.90;;;;;;4990245;28;20052;-72
2022/03/27 05:54:44;;;;;;;35.53;6.70;;;6.00;99.90;;;;;;4987760;28;20089;-72
2022/03/27 05:57:10;;;;;;;39.13;6.90;;;6.00;99.90;;;;;;4958343;28;20129;-73
2022/03/27 05:59:36;;;;;;;41.00;6.82;;;7.50;99.90;;;;;;4989340;28;20554;-72
2022/03/27 06:02:02;;;;;;;38.80;7.65;;;6.20;99.90;;;;;;4988719;28;20121;-72
2022/03/27 06:04:29;;;;;;;38.47;8.07;;;5.30;99.90;;;;;;4972344;28;20069;-72
2022/03/27 06:06:54;;;;;;;39.00;7.25;;;7.50;99.90;;;;;;4989522;28;20108;-72
2022/03/27 06:09:20;;;;;;;36.88;7.13;;;7.10;99.90;;;;;;4988770;28;20950;-72
2022/03/27 06:11:46;;;;;;;36.50;7.18;;;6.30;99.90;;;;;;4970524;28;20129;-72
2022/03/27 06:14:12;;;;;;;42.30;6.72;;;7.20;99.90;;;;;;4989717;28;20046;-72
2022/03/27 06:16:37;;;;;;;41.53;7.47;;;7.60;99.90;;;;;;4990267;28;20046;-72
2022/03/27 06:19:04;;;;;;;33.80;7.03;;;7.90;99.90;;;;;;4971324;28;20124;-72
2022/03/27 06:21:29;;;;;;;38.45;7.25;;;7.50;99.90;;;;;;4984701;28;20140;-71
2022/03/27 06:23:55;;;;;;;39.10;7.47;;;7.60;99.90;;;;;;4988367;28;20113;-72
2022/03/27 06:26:22;;;;;;;47.00;7.72;;;7.10;99.90;;;;;;4970161;28;20075;-72
2022/03/27 06:28:48;;;;;;;42.63;7.35;;;8.00;99.90;;;;;;4991206;28;20149;-71
2022/03/27 06:31:13;;;;;;;46.63;8.43;;;7.10;99.90;;;;;;4970566;28;20180;-72
2022/03/27 06:33:39;;;;;;;47.20;7.97;;;7.20;99.90;;;;;;4989405;28;20034;-72
2022/03/27 06:36:05;;;;;;;41.40;7.03;;;7.20;99.90;;;;;;4989223;28;20061;-72
2022/03/27 06:38:31;;;;;;;46.17;7.00;;;7.30;99.90;;;;;;4988493;28;20125;-71
2022/03/27 06:40:56;;;;;;;43.53;7.55;;;7.40;99.90;;;;;;4988586;28;20085;-73
2022/03/27 06:43:23;;;;;;;38.15;8.18;;;7.50;99.90;;;;;;4989100;28;20057;-72
2022/03/27 06:45:51;;;;;;;45.72;8.02;;;7.50;99.90;;;;;;4969524;28;20054;-72
2022/03/27 06:48:17;;;;;;;40.83;7.88;;;7.60;99.90;;;;;;4991786;28;20056;-73
2022/03/27 06:50:44;;;;;;;49.38;8.73;;;8.00;99.90;;;;;;4971132;28;20046;-72
2022/03/27 06:53:12;;;;;;;39.72;8.48;;;9.00;99.90;;;;;;4988282;28;20495;-72
2022/03/27 06:55:38;;;;;;;45.28;7.70;;;8.80;99.90;;;;;;4987916;28;20557;-73
2022/03/27 06:58:04;;;;;;;34.63;6.97;;;9.00;99.90;;;;;;4988618;28;20447;-73
2022/03/27 07:03:13;;;;;;;39.28;7.32;;;8.10;99.90;;;;;;4989304;28;20050;-72
2022/03/27 07:05:41;;;;;;;44.42;7.15;;;8.20;99.90;;;;;;4966871;28;20403;-72
2022/03/27 07:08:12;;;;;;;41.25;7.65;;;8.30;99.90;;;;;;4969818;28;20380;-73
2022/03/27 07:10:39;;;;;;;33.15;7.20;;;8.40;99.90;;;;;;4951026;28;20067;-72
2022/03/27 07:13:09;;;;;;;40.22;7.32;;;8.40;99.90;;;;;;4969834;28;20053;-73
2022/03/27 07:15:36;;;;;;;35.72;6.70;;;8.60;99.90;;;;;;4951184;28;20126;-73
2022/03/27 07:18:02;;;;;;;44.13;7.15;;;8.80;99.90;;;;;;4981492;28;20096;-73
2022/03/27 07:20:32;;;;;;;34.63;6.35;;;9.80;99.90;;;;;;4974908;28;20042;-72
2022/03/27 07:23:02;;;;;;;36.45;7.63;;;9.30;99.90;;;;;;4957744;28;20062;-73
2022/03/27 07:25:32;;;;;;;36.22;7.57;;;9.70;99.90;;;;;;4972045;28;20054;-72
2022/03/27 07:27:57;;;;;;;34.53;7.05;;;10.80;99.90;;;;;;4980699;28;20049;-73
2022/03/27 07:30:23;;;;;;;37.53;6.60;;;11.30;99.90;;;;;;4977651;28;20042;-73
2022/03/27 07:32:52;;;;;;;38.47;6.68;;;11.50;99.90;;;;;;4977947;28;20142;-73
2022/03/27 07:35:18;;;;;;;33.03;7.57;;;11.40;99.90;;;;;;4969490;28;20105;-74
2022/03/27 07:37:45;;;;;;;36.75;7.03;;;11.50;99.90;;;;;;4968100;28;20045;-73
2022/03/27 07:40:12;;;;;;;37.72;6.57;;;11.40;99.90;;;;;;4978248;28;20054;-73
2022/03/27 07:42:46;;;;;;;34.63;6.88;;;11.40;99.90;;;;;;4960634;28;20121;-73
2022/03/27 07:45:14;;;;;;;28.95;6.57;;;11.40;99.90;;;;;;4976032;28;20440;-73
2022/03/27 07:47:40;;;;;;;40.40;7.32;;;11.50;99.90;;;;;;4979836;28;20086;-73
2022/03/27 07:50:07;;;;;;;35.30;6.80;;;11.60;99.90;;;;;;4988142;28;20149;-73
2022/03/27 07:52:36;;;;;;;33.78;7.05;;;11.40;99.90;;;;;;4970546;28;20050;-73
2022/03/27 07:55:02;;;;;;;34.85;7.53;;;11.30;99.90;;;;;;4967092;28;20039;-73
2022/03/27 07:57:28;;;;;;;33.25;6.63;;;11.30;99.90;;;;;;4987494;28;20106;-73
2022/03/27 07:59:54;;;;;;;31.65;6.85;;;11.30;99.90;;;;;;4987906;28;20048;-73
2022/03/27 08:02:21;;;;;;;38.50;7.95;;;11.40;99.90;;;;;;4969328;28;20458;-72
2022/03/27 08:04:47;;;;;;;32.65;7.40;;;11.50;99.90;;;;;;4987195;28;20047;-72
2022/03/27 08:07:13;;;;;;;32.33;7.07;;;11.60;99.90;;;;;;4987200;28;20058;-72
2022/03/27 08:09:39;;;;;;;38.55;7.40;;;11.60;99.90;;;;;;4969436;28;20522;-73
2022/03/27 08:12:09;;;;;;;33.35;7.03;;;11.80;99.90;;;;;;4985736;28;20046;-72
2022/03/27 08:14:38;;;;;;;34.72;6.20;;;11.90;99.90;;;;;;4987705;28;20130;-72
2022/03/27 08:17:06;;;;;;;38.78;7.72;;;11.90;99.90;;;;;;4990276;28;20061;-72
2022/03/27 08:19:32;;;;;;;36.65;7.68;;;12.00;99.90;;;;;;4987334;28;20054;-73
2022/03/27 08:21:58;;;;;;;39.28;7.03;;;12.00;99.90;;;;;;4971998;28;20055;-72
2022/03/27 08:24:24;;;;;;;31.00;7.30;;;12.00;99.90;;;;;;4968481;28;20174;-72
2022/03/27 08:26:56;;;;;;;35.78;7.85;;;12.20;99.90;;;;;;4972892;28;20121;-73
2022/03/27 08:29:36;;;;;;;32.55;6.90;;;12.60;99.90;;;;;;4991121;28;20058;-73
2022/03/27 08:32:05;;;;;;;27.27;6.53;;;12.80;99.90;;;;;;4990041;28;20043;-72
2022/03/27 08:34:33;;;;;;;35.15;7.82;;;13.10;99.90;;;;;;4972351;28;20497;-74
2022/03/27 08:37:02;;;;;;;33.72;6.82;;;13.20;99.90;;;;;;4988188;28;20184;-72
2022/03/27 08:39:29;;;;;;;32.25;7.32;;;13.20;99.90;;;;;;4992996;28;20086;-72
2022/03/27 08:41:55;;;;;;;29.10;6.80;;;13.30;99.90;;;;;;4955890;28;20104;-71
2022/03/27 08:44:23;;;;;;;33.80;6.93;;;13.40;99.90;;;;;;4991216;28;20061;-70
2022/03/27 08:46:50;;;;;;;31.80;6.70;;;13.30;99.90;;;;;;4990681;28;20046;-71
2022/03/27 08:49:35;;;;;;;30.95;6.30;;;13.30;99.90;;;;;;4973402;28;20050;-72
2022/03/27 08:52:01;;;;;;;32.97;6.53;;;13.40;99.90;;;;;;4989769;28;20172;-70
2022/03/27 08:54:43;;;;;;;24.92;6.68;;;13.50;99.90;;;;;;4990339;28;20092;-71
2022/03/27 08:57:22;;;;;;;31.98;7.82;;;13.70;99.90;;;;;;4968468;28;20657;-72
2022/03/27 08:59:53;;;;;;;29.48;6.45;;;15.40;99.90;;;;;;4988581;28;20149;-72
2022/03/27 09:02:23;;;;;;;33.97;6.85;;;18.40;99.90;;;;;;4989811;28;20046;-75
2022/03/27 09:04:53;;;;;;;29.48;6.88;;;21.80;99.90;;;;;;4990526;28;20443;-75
2022/03/27 09:07:23;;;;;;;28.33;5.72;;;23.40;98.80;;;;;;4992515;28;20093;-74
2022/03/27 09:09:50;;;;;;;24.63;6.75;;;25.40;93.20;;;;;;4956331;28;20048;-75
2022/03/27 09:12:19;;;;;;;31.10;5.90;;;27.40;90.40;;;;;;4989126;28;20089;-74
2022/03/27 09:14:45;;;;;;;25.10;5.97;;;28.20;86.20;;;;;;4990278;28;20050;-76
2022/03/27 09:17:10;;;;;;;25.42;5.90;;;29.40;80.60;;;;;;4991031;28;20116;-77
2022/03/27 09:19:41;;;;;;;20.25;5.25;;;30.40;72.80;;;;;;4993645;28;20482;-76
2022/03/27 09:22:18;;;;;;;21.90;5.63;;;31.60;67.90;;;;;;4989785;28;20065;-77
2022/03/27 09:24:47;;;;;;;21.77;5.75;;;32.10;62.40;;;;;;4989201;28;20089;-77
2022/03/27 09:27:14;;;;;;;23.40;5.78;;;32.70;58.70;;;;;;4988985;28;20077;-77
2022/03/27 09:29:57;;;;;;;15.50;5.45;;;33.20;54.90;;;;;;4989858;28;20050;-77
2022/03/27 09:32:28;;;;;;;20.15;5.55;;;33.90;54.30;;;;;;4990842;28;20139;-77
2022/03/27 09:35:06;;;;;;;19.35;5.07;;;34.50;51.50;;;;;;4972048;28;20065;-74
2022/03/27 09:37:35;;;;;;;22.23;6.55;;;35.10;49.80;;;;;;4973876;28;20070;-76
2022/03/27 09:40:03;;;;;;;21.27;5.72;;;35.30;48.60;;;;;;4951493;28;20054;-75
2022/03/27 09:42:29;;;;;;;18.02;5.38;;;35.30;48.80;;;;;;4967850;28;20387;-76
2022/03/27 09:45:13;;;;;;;21.98;6.07;;;35.60;48.30;;;;;;4990998;28;20046;-74
2022/03/27 09:47:45;;;;;;;24.65;6.65;;;36.10;46.70;;;;;;4979979;28;20054;-74
2022/03/27 09:50:34;;;;;;;21.27;5.97;;;36.60;46.90;;;;;;4980256;28;20109;-74
2022/03/27 09:53:25;;;;;;;19.38;6.35;;;37.40;46.20;;;;;;4978205;28;20082;-75
2022/03/27 09:55:59;;;;;;;20.83;6.22;;;37.80;44.70;;;;;;4976713;28;20072;-74
2022/03/27 09:58:43;;;;;;;18.20;5.90;;;38.30;44.50;;;;;;4978198;28;20125;-74
2022/03/27 10:01:20;;;;;;;20.85;6.10;;;38.80;43.80;;;;;;4985712;28;20077;-73
2022/03/27 10:04:13;;;;;;;18.40;5.65;;;39.20;43.80;;;;;;4988162;28;20092;-74
2022/03/27 10:06:40;;;;;;;18.17;5.43;;;39.50;42.10;;;;;;4976977;28;20046;-73
2022/03/27 10:09:11;;;;;;;21.85;6.40;;;39.80;41.20;;;;;;4968027;28;20042;-75
2022/03/27 10:11:38;;;;;;;23.70;6.40;;;39.90;41.20;;;;;;4989148;28;20173;-74
2022/03/27 10:14:05;;;;;;;19.55;5.57;;;40.00;40.20;;;;;;4955699;28;20065;-73
2022/03/27 10:16:34;;;;;;;21.58;5.82;;;40.20;40.00;;;;;;4969661;28;20091;-68
2022/03/27 10:19:18;;;;;;;20.00;6.15;;;40.20;38.90;;;;;;4989860;28;20125;-69
2022/03/27 10:21:46;;;;;;;20.83;5.47;;;39.70;39.50;;;;;;4991201;28;20051;-68
2022/03/27 10:24:16;;;;;;;16.38;5.47;;;39.90;38.20;;;;;;4953452;28;20055;-68
2022/03/27 10:26:44;;;;;;;17.60;5.65;;;39.20;39.40;;;;;;4968298;28;20091;-69
2022/03/27 10:29:13;;;;;;;16.05;5.45;;;39.40;39.30;;;;;;4952727;28;20074;-70
2022/03/27 10:31:38;;;;;;;18.42;5.50;;;39.60;39.10;;;;;;4987001;28;20104;-69
2022/03/27 10:34:06;;;;;;;14.80;5.03;;;40.40;38.70;;;;;;4988487;28;20038;-69
2022/03/27 10:36:36;;;;;;;16.75;5.15;;;41.10;37.80;;;;;;4988331;28;20046;-69
2022/03/27 10:39:16;;;;;;;21.90;5.60;;;41.60;36.80;;;;;;4971157;28;20050;-69
2022/03/27 10:42:08;;;;;;;17.08;5.25;;;41.20;36.60;;;;;;4987679;28;20046;-69
2022/03/27 10:44:55;;;;;;;18.00;5.40;;;41.60;36.70;;;;;;4987151;28;20069;-70
2022/03/27 10:47:25;;;;;;;18.60;5.57;;;41.40;36.40;;;;;;4989513;28;20069;-70
2022/03/27 10:50:08;;;;;;;18.60;5.90;;;41.70;36.60;;;;;;4990029;28;20053;-68
2022/03/27 10:52:36;;;;;;;15.40;5.43;;;41.60;36.40;;;;;;4988165;28;20050;-69
2022/03/27 10:55:06;;;;;;;15.27;5.00;;;41.40;36.50;;;;;;4986661;28;20505;-70
2022/03/27 10:57:37;;;;;;;17.40;5.30;;;41.90;35.90;;;;;;4986343;28;20053;-70
2022/03/27 11:00:08;;;;;;;18.10;5.38;;;41.90;35.20;;;;;;4982091;28;20050;-71
2022/03/27 11:02:53;;;;;;;19.15;5.50;;;41.60;35.20;;;;;;4988365;28;20042;-71
2022/03/27 11:05:36;;;;;;;16.85;5.25;;;42.30;34.60;;;;;;4985369;28;20372;-71
2022/03/27 11:08:17;;;;;;;19.52;5.50;;;42.00;34.90;;;;;;4987614;28;20142;-71
2022/03/27 11:10:49;;;;;;;15.75;4.75;;;42.20;34.70;;;;;;4991493;28;20152;-71
2022/03/27 11:13:28;;;;;;;16.73;5.22;;;42.60;34.80;;;;;;4972621;28;20043;-70
2022/03/27 11:16:07;;;;;;;13.43;4.88;;;43.10;34.60;;;;;;4973177;28;20421;-71
2022/03/27 11:18:43;;;;;;;15.48;4.72;;;43.30;34.00;;;;;;4970238;28;20109;-71
2022/03/27 11:21:27;;;;;;;15.43;5.00;;;43.80;33.10;;;;;;4970478;28;20529;-73
2022/03/27 11:24:02;;;;;;;13.35;4.35;;;44.00;33.00;;;;;;4973590;28;20054;-72
2022/03/27 11:26:29;;;;;;;15.35;4.95;;;43.90;32.80;;;;;;4954408;28;20046;-73
2022/03/27 11:29:10;;;;;;;12.90;4.00;;;44.00;32.60;;;;;;4971387;28;20039;-73
2022/03/27 11:31:37;;;;;;;14.02;4.20;;;43.60;32.00;;;;;;4951244;28;20065;-72
2022/03/27 11:34:09;;;;;;;13.70;3.70;;;42.90;31.80;;;;;;4973102;28;20364;-71
2022/03/27 11:36:36;;;;;;;14.23;4.25;;;42.70;31.60;;;;;;4970678;28;20050;-70
2022/03/27 11:39:07;;;;;;;11.77;4.10;;;42.60;31.90;;;;;;4987537;28;20096;-71
2022/03/27 11:41:44;;;;;;;12.35;3.70;;;42.60;31.20;;;;;;4964268;28;20046;-72
2022/03/27 11:47:22;;;;;;;14.63;4.10;;;41.70;30.80;;;;;;4991311;28;20105;-72
2022/03/27 11:49:50;;;;;;;11.98;3.90;;;41.50;31.10;;;;;;4975244;28;20050;-71
2022/03/27 11:52:18;;;;;;;12.52;4.38;;;41.30;31.50;;;;;;4992394;28;20034;-72
2022/03/27 11:54:44;;;;;;;11.85;3.90;;;41.10;31.30;;;;;;4989876;28;20061;-74
2022/03/27 11:57:10;;;;;;;9.40;3.60;;;40.90;31.00;;;;;;4974143;28;20129;-72
2022/03/27 11:59:48;;;;;;;12.10;3.92;;;40.70;31.60;;;;;;4973490;28;20035;-73
2022/03/27 12:02:15;;;;;;;11.50;3.67;;;40.10;31.00;;;;;;4990470;28;20383;-73
2022/03/27 12:04:55;;;;;;;9.27;3.28;;;39.80;31.20;;;;;;4954790;28;20047;-73
2022/03/27 12:07:22;;;;;;;12.35;3.55;;;39.90;31.00;;;;;;4987019;28;20399;-73
2022/03/27 12:09:59;;;;;;;11.27;3.53;;;39.90;30.40;;;;;;4988929;28;20429;-72
2022/03/27 12:12:27;;;;;;;10.52;3.53;;;39.50;30.80;;;;;;4973787;28;20054;-73
2022/03/27 12:15:05;;;;;;;11.57;3.40;;;39.30;31.10;;;;;;4974677;28;20153;-73
2022/03/27 12:17:32;;;;;;;11.05;3.13;;;39.50;31.00;;;;;;4993800;28;20043;-74
2022/03/27 12:20:05;;;;;;;10.80;3.25;;;39.70;30.70;;;;;;4988260;28;20117;-73
2022/03/27 12:22:41;;;;;;;11.77;3.38;;;39.30;30.70;;;;;;4990460;28;20101;-72
2022/03/27 12:25:22;;;;;;;10.05;3.30;;;39.10;30.60;;;;;;4988445;28;20047;-69
2022/03/27 12:30:46;;;;;;;12.85;3.40;;;37.20;30.60;;;;;;4968824;28;20055;-71
2022/03/27 12:33:12;;;;;;;11.70;3.55;;;34.80;31.30;;;;;;4988125;28;20540;-71
2022/03/27 12:35:38;;;;;;;11.27;3.67;;;32.90;32.40;;;;;;4986816;28;20506;-71
2022/03/27 12:38:04;;;;;;;12.98;3.70;;;31.30;33.50;;;;;;4987300;28;20121;-71
2022/03/27 12:40:40;;;;;;;11.80;3.60;;;29.70;34.20;;;;;;4986293;28;20065;-71
2022/03/27 12:43:15;;;;;;;11.77;3.30;;;28.70;35.30;;;;;;4986847;28;20052;-71
2022/03/27 12:45:42;;;;;;;10.80;3.40;;;27.50;36.10;;;;;;4991707;28;20104;-71
2022/03/27 12:48:23;;;;;;;15.65;4.00;;;26.60;37.10;;;;;;4988466;28;20046;-71
2022/03/27 12:50:54;;;;;;;10.43;3.38;;;25.90;38.00;;;;;;4986145;28;20065;-71
2022/03/27 12:53:20;;;;;;;11.95;3.58;;;25.30;38.50;;;;;;4989033;28;20555;-69
2022/03/27 12:56:18;;;;;;;11.73;3.33;;;24.90;39.20;;;;;;4987910;28;20108;-70
2022/03/27 12:58:44;;;;;;;13.80;3.70;;;24.40;40.00;;;;;;4923788;28;20062;-70
2022/03/27 13:01:20;;;;;;;13.55;3.58;;;23.90;40.80;;;;;;4971386;28;20101;-70